Time;durP1;ratioP1;P1;durP2;ratioP2;P2;SDS_P1;SDS_P2;PMS_P1;PMS_P2;Temp;Humidity;BMP_temperature;BMP_pressure;BME280_temperature;BME280_humidity;BME280_pressure;Samples;Min_cycle;Max_cycle;Signal;HPM_P1;HPM_P2
2023/02/15 00:01:43;;;;;;;;;;;;;;;3.67;100.00;102895.84;5041309;28;19920;-65
2023/02/15 00:04:12;;;;;;;;;;;;;;;3.64;100.00;102891.56;5035603;28;19929;-67
2023/02/15 00:06:38;;;;;;;;;;;;;;;3.65;100.00;102884.66;5024077;28;19954;-65
2023/02/15 00:09:04;;;;;;;;;;;;;;;3.62;100.00;102884.75;5034531;28;19930;-65
2023/02/15 00:11:40;;;;;;;;;;;;;;;3.63;100.00;102891.63;5035542;28;20333;-66
2023/02/15 00:14:07;;;;;;;;;;;;;;;3.59;100.00;102887.41;5048817;28;19974;-65
2023/02/15 00:16:34;;;;;;;;;;;;;;;3.57;100.00;102879.72;5029714;28;19952;-66
2023/02/15 00:19:01;;;;;;;;;;;;;;;3.57;100.00;102884.91;5023739;28;20012;-65
2023/02/15 00:21:32;;;;;;;;;;;;;;;3.54;100.00;102888.44;5034939;28;19925;-66
2023/02/15 00:23:59;;;;;;;;;;;;;;;3.51;100.00;102890.28;5026675;28;19925;-66
2023/02/15 00:26:26;;;;;;;;;;;;;;;3.47;100.00;102888.66;5043575;28;19921;-65
2023/02/15 00:28:52;;;;;;;;;;;;;;;3.43;100.00;102892.25;5027908;28;20544;-65
2023/02/15 00:31:19;;;;;;;;;;;;;;;3.42;100.00;102895.78;5033179;28;19925;-66
2023/02/15 00:33:45;;;;;;;;;;;;;;;3.34;100.00;102885.63;5023098;28;20344;-66
2023/02/15 00:36:12;;;;;;;;;;;;;;;3.33;100.00;102883.94;5022346;28;19925;-65
2023/02/15 00:38:39;;;;;;;;;;;;;;;3.25;100.00;102881.56;5026658;28;19932;-66
2023/02/15 00:41:06;;;;;;;;;;;;;;;3.21;100.00;102889.50;5035642;28;19932;-66
2023/02/15 00:43:33;;;;;;;;;;;;;;;3.20;100.00;102875.69;5037356;28;19925;-66
2023/02/15 00:46:00;;;;;;;;;;;;;;;3.15;100.00;102880.16;5034779;28;20916;-66
2023/02/15 00:48:28;;;;;;;;;;;;;;;3.19;100.00;102868.81;5036846;28;19932;-66
2023/02/15 00:50:56;;;;;;;;;;;;;;;3.21;100.00;102871.34;5027528;28;19936;-66
2023/02/15 00:53:22;;;;;;;;;;;;;;;3.15;100.00;102862.84;5028427;28;20335;-67
2023/02/15 00:55:49;;;;;;;;;;;;;;;3.20;100.00;102864.47;5033750;28;19931;-66
2023/02/15 00:58:15;;;;;;;;;;;;;;;3.19;100.00;102860.19;5025363;28;19983;-66
2023/02/15 01:00:43;;;;;;;;;;;;;;;3.17;100.00;102861.09;5030225;28;19925;-66
2023/02/15 01:03:09;;;;;;;;;;;;;;;3.16;100.00;102854.19;5033789;28;19925;-66
2023/02/15 01:05:36;;;;;;;;;;;;;;;3.15;100.00;102855.06;5047100;28;19944;-66
2023/02/15 01:08:02;;;;;;;;;;;;;;;3.19;100.00;102853.25;5041383;28;19956;-66
2023/02/15 01:10:29;;;;;;;;;;;;;;;3.17;100.00;102850.72;5033256;28;20016;-66
2023/02/15 01:12:56;;;;;;;;;;;;;;;3.17;100.00;102853.31;5024571;28;20024;-66
2023/02/15 01:15:22;;;;;;;;;;;;;;;3.16;100.00;102851.59;5023995;28;19921;-66
2023/02/15 01:17:52;;;;;;;;;;;;;;;3.15;100.00;102849.88;5031554;28;19932;-66
2023/02/15 01:20:19;;;;;;;;;;;;;;;3.14;100.00;102847.38;5034235;28;19992;-65
2023/02/15 01:22:46;;;;;;;;;;;;;;;3.10;100.00;102849.22;5037825;28;20392;-66
2023/02/15 01:25:12;;;;;;;;;;;;;;;3.07;100.00;102846.69;5029331;28;20362;-65
2023/02/15 01:27:39;;;;;;;;;;;;;;;3.04;100.00;102840.75;5024028;28;19921;-66
2023/02/15 01:30:05;;;;;;;;;;;;;;;3.03;100.00;102839.06;5024185;28;19925;-66
2023/02/15 01:32:32;;;;;;;;;;;;;;;3.01;100.00;102838.28;5039251;28;20384;-65
2023/02/15 01:34:58;;;;;;;;;;;;;;;3.02;100.00;102832.19;5030089;28;19971;-66
2023/02/15 01:37:24;;;;;;;;;;;;;;;2.98;100.00;102841.81;5028664;28;19998;-66
2023/02/15 01:39:50;;;;;;;;;;;;;;;2.90;100.00;102839.47;5028456;28;19925;-66
2023/02/15 01:42:27;;;;;;;;;;;;;;;2.91;100.00;102829.94;5028370;28;20019;-65
2023/02/15 01:44:56;;;;;;;;;;;;;;;2.88;100.00;102825.69;5033766;28;19931;-66
2023/02/15 01:47:42;;;;;;;;;;;;;;;2.89;100.00;102824.78;5042367;28;19928;-66
2023/02/15 01:50:12;;;;;;;;;;;;;;;2.86;100.00;102824.91;5018146;28;19925;-66
2023/02/15 01:52:40;;;;;;;;;;;;;;;2.85;100.00;102830.97;5031866;28;19999;-65
2023/02/15 01:55:07;;;;;;;;;;;;;;;2.84;100.00;102821.47;5034640;28;19925;-65
2023/02/15 01:57:34;;;;;;;;;;;;;;;2.82;100.00;102825.03;5024270;28;19944;-65
2023/02/15 02:00:04;;;;;;;;;;;;;;;2.81;100.00;102831.13;5031213;28;20380;-65
2023/02/15 02:02:30;;;;;;;;;;;;;;;2.81;100.00;102820.75;5039434;28;19986;-65
2023/02/15 02:04:59;;;;;;;;;;;;;;;2.84;100.00;102824.06;5031155;28;19931;-65
2023/02/15 02:07:29;;;;;;;;;;;;;;;2.83;100.00;102821.53;5026614;28;19929;-65
2023/02/15 02:09:55;;;;;;;;;;;;;;;2.79;100.00;102819.94;5006337;28;19937;-64
2023/02/15 02:12:23;;;;;;;;;;;;;;;2.80;100.00;102813.84;5024151;28;20386;-65
2023/02/15 02:14:50;;;;;;;;;;;;;;;2.78;100.00;102811.31;5030940;28;19948;-65
2023/02/15 02:17:49;;;;;;;;;;;;;;;2.79;100.00;102813.00;5030199;28;19974;-65
2023/02/15 02:20:28;;;;;;;;;;;;;;;2.79;100.00;102807.00;5008611;28;19931;-65
2023/02/15 02:23:05;;;;;;;;;;;;;;;2.80;100.00;102808.66;5023802;28;19931;-66
2023/02/15 02:25:50;;;;;;;;;;;;;;;2.68;100.00;102808.13;5039096;28;20283;-65
2023/02/15 02:28:26;;;;;;;;;;;;;;;2.71;100.00;102799.44;5037751;28;19936;-67
2023/02/15 02:30:58;;;;;;;;;;;;;;;2.69;100.00;102793.47;5030691;28;19925;-65
2023/02/15 02:33:34;;;;;;;;;;;;;;;2.68;100.00;102789.16;5041982;28;19967;-66
2023/02/15 02:36:07;;;;;;;;;;;;;;;2.66;100.00;102786.59;5017460;28;19921;-66
2023/02/15 02:38:36;;;;;;;;;;;;;;;2.61;100.00;102790.22;5019304;28;20436;-65
2023/02/15 02:41:03;;;;;;;;;;;;;;;2.57;100.00;102790.34;5030680;28;19970;-65
2023/02/15 02:43:48;;;;;;;;;;;;;;;2.53;100.00;102791.34;5027743;28;19931;-66
2023/02/15 02:46:20;;;;;;;;;;;;;;;2.49;100.00;102787.13;5031868;28;19929;-66
2023/02/15 02:48:48;;;;;;;;;;;;;;;2.47;100.00;102783.75;5029231;28;19968;-65
2023/02/15 02:51:20;;;;;;;;;;;;;;;2.42;100.00;102783.03;5023037;28;20416;-65
2023/02/15 02:53:47;;;;;;;;;;;;;;;2.44;100.00;102780.41;5021416;28;20479;-65
2023/02/15 02:56:22;;;;;;;;;;;;;;;2.38;100.00;102777.06;5038501;28;19924;-65
2023/02/15 02:58:51;;;;;;;;;;;;;;;2.37;100.00;102771.94;5028227;28;20428;-65
2023/02/15 03:01:21;;;;;;;;;;;;;;;2.34;100.00;102775.47;5044074;28;19928;-65
2023/02/15 03:03:50;;;;;;;;;;;;;;;2.31;100.00;102762.63;5030804;28;19929;-64
2023/02/15 03:06:19;;;;;;;;;;;;;;;2.30;100.00;102765.25;5038802;28;20019;-66
2023/02/15 03:08:48;;;;;;;;;;;;;;;2.27;100.00;102765.34;5038275;28;19957;-65
2023/02/15 03:11:14;;;;;;;;;;;;;;;2.28;100.00;102761.88;5032076;28;19931;-66
2023/02/15 03:13:41;;;;;;;;;;;;;;;2.27;100.00;102754.97;5045893;28;19925;-65
2023/02/15 03:16:27;;;;;;;;;;;;;;;2.24;100.00;102761.09;5030081;28;19925;-65
2023/02/15 03:18:56;;;;;;;;;;;;;;;2.22;100.00;102755.13;5037336;28;19925;-65
2023/02/15 03:21:35;;;;;;;;;;;;;;;2.23;100.00;102764.56;5032469;28;19981;-66
2023/02/15 03:24:13;;;;;;;;;;;;;;;2.20;100.00;102751.72;5039145;28;19921;-65
2023/02/15 03:26:43;;;;;;;;;;;;;;;2.18;100.00;102751.78;5021979;28;19925;-65
2023/02/15 03:29:10;;;;;;;;;;;;;;;2.16;100.00;102743.19;5034381;28;19971;-66
2023/02/15 03:31:39;;;;;;;;;;;;;;;2.13;100.00;102740.69;5035519;28;20413;-65
2023/02/15 03:34:09;;;;;;;;;;;;;;;2.13;100.00;102740.69;5039416;28;20424;-66
2023/02/15 03:36:44;;;;;;;;;;;;;;;2.11;100.00;102734.72;5046394;28;19934;-65
2023/02/15 03:39:15;;;;;;;;;;;;;;;2.08;100.00;102734.81;5023015;28;19995;-65
2023/02/15 03:41:46;;;;;;;;;;;;;;;2.09;100.00;102728.72;5030241;28;20622;-65
2023/02/15 03:44:23;;;;;;;;;;;;;;;2.08;100.00;102728.75;5021796;28;19925;-65
2023/02/15 03:47:11;;;;;;;;;;;;;;;2.07;100.00;102729.69;5043569;28;19925;-65
2023/02/15 03:49:40;;;;;;;;;;;;;;;2.04;100.00;102727.16;5038066;28;21154;-64
2023/02/15 03:52:08;;;;;;;;;;;;;;;2.03;100.00;102720.31;5043262;28;19920;-65
2023/02/15 03:54:46;;;;;;;;;;;;;;;2.00;100.00;102734.19;5038198;28;20316;-64
2023/02/15 04:03:12;;;;;;;;;;;;;;;1.88;100.00;102724.16;5040219;28;19925;-65
2023/02/15 04:05:38;;;;;;;;;;;;;;;1.85;100.00;102716.50;5039579;28;19924;-64
2023/02/15 04:08:04;;;;;;;;;;;;;;;1.83;100.00;102719.13;5036032;28;19933;-65
2023/02/15 04:13:16;;;;;;;;;;;;;;;1.80;100.00;102719.19;5027193;28;19925;-65
2023/02/15 04:26:43;;;;;;;;;;;;;;;1.58;100.00;102717.22;5038373;28;20073;-65
2023/02/15 04:29:09;;;;;;;;;;;;;;;1.58;100.00;102714.63;5017360;28;19932;-64
2023/02/15 04:31:35;;;;;;;;;;;;;;;1.61;100.00;102713.72;5034455;28;20351;-65
2023/02/15 04:34:02;;;;;;;;;;;;;;;1.60;100.00;102714.59;5046783;28;19925;-65
2023/02/15 04:36:28;;;;;;;;;;;;;;;1.57;100.00;102707.78;5021906;28;19924;-65
2023/02/15 04:38:54;;;;;;;;;;;;;;;1.61;100.00;102721.47;5046770;28;20140;-64
2023/02/15 04:41:21;;;;;;;;;;;;;;;1.62;100.00;102720.56;5034114;28;19925;-64
2023/02/15 04:43:47;;;;;;;;;;;;;;;1.64;100.00;102715.34;5025123;28;19921;-64
2023/02/15 04:46:13;;;;;;;;;;;;;;;1.62;100.00;102715.41;5042282;28;20043;-65
2023/02/15 04:48:40;;;;;;;;;;;;;;;1.60;100.00;102711.16;5046193;28;19921;-64
2023/02/15 04:51:06;;;;;;;;;;;;;;;1.61;100.00;102715.44;5040216;28;19925;-65
2023/02/15 04:53:33;;;;;;;;;;;;;;;1.61;100.00;102715.44;5029230;28;19931;-64
2023/02/15 04:55:59;;;;;;;;;;;;;;;1.60;100.00;102706.00;5027992;28;19928;-65
2023/02/15 04:58:26;;;;;;;;;;;;;;;1.60;100.00;102703.41;5036396;28;20281;-66
2023/02/15 05:00:56;;;;;;;;;;;;;;;1.58;100.00;102703.44;5043072;28;19920;-64
2023/02/15 05:03:23;;;;;;;;;;;;;;;1.58;100.00;102704.28;5031043;28;20145;-65
2023/02/15 05:05:49;;;;;;;;;;;;;;;1.57;100.00;102705.19;5044507;28;19924;-65
2023/02/15 05:08:16;;;;;;;;;;;;;;;1.56;100.00;102706.06;5037500;28;19925;-67
2023/02/15 05:10:42;;;;;;;;;;;;;;;1.55;100.00;102706.13;5024900;28;19974;-65
2023/02/15 05:13:08;;;;;;;;;;;;;;;1.56;100.00;102703.47;5047586;28;20568;-65
2023/02/15 05:15:35;;;;;;;;;;;;;;;1.54;100.00;102705.25;5036573;28;19925;-66
2023/02/15 05:18:01;;;;;;;;;;;;;;;1.51;100.00;102695.00;5033301;28;19931;-65
2023/02/15 05:20:28;;;;;;;;;;;;;;;1.50;100.00;102693.28;5029418;28;19924;-65
2023/02/15 05:22:54;;;;;;;;;;;;;;;1.52;100.00;102698.44;5017045;28;20420;-66
2023/02/15 05:28:19;;;;;;;;;;;;;;;1.44;100.00;102693.47;5025596;28;20381;-66
2023/02/15 05:30:47;;;;;;;;;;;;;;;1.41;100.00;102693.53;5044392;28;19935;-66
2023/02/15 05:33:14;;;;;;;;;;;;;;;1.36;100.00;102685.91;5039863;28;19990;-66
2023/02/15 05:35:40;;;;;;;;;;;;;;;1.37;100.00;102685.03;5041729;28;19932;-65
2023/02/15 05:38:06;;;;;;;;;;;;;;;1.37;100.00;102686.75;5034430;28;19931;-67
2023/02/15 05:40:33;;;;;;;;;;;;;;;1.37;100.00;102682.44;5043082;28;19925;-65
2023/02/15 05:42:59;;;;;;;;;;;;;;;1.36;100.00;102672.97;5045303;28;19924;-66
2023/02/15 05:45:26;;;;;;;;;;;;;;;1.35;100.00;102673.88;5039915;28;19976;-66
2023/02/15 05:47:53;;;;;;;;;;;;;;;1.34;100.00;102681.69;5042809;28;20266;-66
2023/02/15 05:50:19;;;;;;;;;;;;;;;1.35;100.00;102679.06;5032211;28;19950;-67
2023/02/15 05:52:45;;;;;;;;;;;;;;;1.36;100.00;102680.75;5041002;28;20542;-66
2023/02/15 05:55:12;;;;;;;;;;;;;;;1.38;100.00;102678.13;5034909;28;19924;-66
2023/02/15 05:57:38;;;;;;;;;;;;;;;1.36;100.00;102672.97;5029370;28;19933;-65
2023/02/15 06:00:05;;;;;;;;;;;;;;;1.33;100.00;102674.78;5046448;28;19925;-65
2023/02/15 06:02:35;;;;;;;;;;;;;;;1.33;100.00;102680.84;5024240;28;19971;-66
2023/02/15 06:05:02;;;;;;;;;;;;;;;1.31;100.00;102679.16;5030571;28;19971;-66
2023/02/15 06:07:28;;;;;;;;;;;;;;;1.30;100.00;102686.09;5020756;28;19929;-66
2023/02/15 06:09:54;;;;;;;;;;;;;;;1.28;100.00;102684.44;5029342;28;19924;-66
2023/02/15 06:12:21;;;;;;;;;;;;;;;1.26;100.00;102684.47;5032315;28;19932;-66
2023/02/15 06:14:47;;;;;;;;;;;;;;;1.23;100.00;102684.53;5036759;28;19924;-66
2023/02/15 06:17:14;;;;;;;;;;;;;;;1.24;100.00;102680.22;5044419;28;19947;-66
2023/02/15 06:19:40;;;;;;;;;;;;;;;1.19;100.00;102688.09;5032658;28;19925;-65
2023/02/15 06:22:06;;;;;;;;;;;;;;;1.19;100.00;102693.25;5034927;28;19942;-66
2023/02/15 06:24:32;;;;;;;;;;;;;;;1.15;100.00;102697.66;5038730;28;20381;-66
2023/02/15 06:26:59;;;;;;;;;;;;;;;1.11;100.00;102692.63;5032999;28;19921;-66
2023/02/15 06:29:25;;;;;;;;;;;;;;;1.09;100.00;102690.06;5039037;28;19928;-66
2023/02/15 06:31:51;;;;;;;;;;;;;;;1.13;100.00;102690.84;5036214;28;19921;-66
2023/02/15 06:34:18;;;;;;;;;;;;;;;1.10;100.00;102690.94;5037644;28;20477;-65
2023/02/15 06:36:44;;;;;;;;;;;;;;;1.12;100.00;102689.16;5037482;28;20377;-66
2023/02/15 06:39:10;;;;;;;;;;;;;;;1.14;100.00;102695.13;5028884;28;19974;-65
2023/02/15 06:41:37;;;;;;;;;;;;;;;1.12;100.00;102695.16;5038251;28;19929;-66
2023/02/15 06:44:03;;;;;;;;;;;;;;;1.12;100.00;102694.34;5039125;28;19932;-66
2023/02/15 06:46:30;;;;;;;;;;;;;;;1.12;100.00;102694.34;5027660;28;19964;-66
2023/02/15 06:48:56;;;;;;;;;;;;;;;1.10;100.00;102693.53;5025329;28;20325;-67
2023/02/15 06:51:22;;;;;;;;;;;;;;;1.10;100.00;102690.94;5032117;28;19925;-65
2023/02/15 06:53:49;;;;;;;;;;;;;;;1.07;100.00;102688.41;5024179;28;19925;-66
2023/02/15 06:56:15;;;;;;;;;;;;;;;1.05;100.00;102685.88;5033580;28;19924;-66
2023/02/15 06:58:42;;;;;;;;;;;;;;;1.01;100.00;102679.06;5032676;28;19925;-66
2023/02/15 07:01:09;;;;;;;;;;;;;;;1.01;100.00;102680.81;5028785;28;19925;-66
2023/02/15 07:03:35;;;;;;;;;;;;;;;0.99;100.00;102679.13;5048277;28;19974;-66
2023/02/15 07:06:03;;;;;;;;;;;;;;;0.98;100.00;102669.69;5043859;28;19931;-65
2023/02/15 07:08:29;;;;;;;;;;;;;;;1.02;100.00;102667.00;5034512;28;19931;-65
2023/02/15 07:12:41;;;;;;;;;;;;;;;1.05;100.00;102669.50;5024106;28;19931;-66
2023/02/15 07:13:45;;;;;;;;;;;;;;;1.12;100.00;102668.47;5036300;28;19925;-65
2023/02/15 07:16:12;;;;;;;;;;;;;;;1.13;100.00;102670.16;5019646;28;19924;-66
2023/02/15 07:18:39;;;;;;;;;;;;;;;1.18;100.00;102663.97;5042400;28;20309;-65
2023/02/15 07:21:07;;;;;;;;;;;;;;;1.20;100.00;102666.53;5032277;28;20078;-67
2023/02/15 07:23:34;;;;;;;;;;;;;;;1.20;100.00;102656.19;5027617;28;20051;-66
2023/02/15 07:26:01;;;;;;;;;;;;;;;1.16;100.00;102665.75;5025192;28;19924;-66
2023/02/15 07:28:28;;;;;;;;;;;;;;;1.15;100.00;102658.88;5023070;28;19925;-66
2023/02/15 07:30:55;;;;;;;;;;;;;;;1.14;100.00;102656.38;5030793;28;20374;-65
2023/02/15 07:33:24;;;;;;;;;;;;;;;1.15;100.00;102648.53;5024442;28;19932;-67
2023/02/15 07:35:51;;;;;;;;;;;;;;;1.22;100.00;102646.66;5029286;28;20750;-65
2023/02/15 07:38:18;;;;;;;;;;;;;;;1.24;100.00;102647.47;5021227;28;19929;-65
2023/02/15 07:40:44;;;;;;;;;;;;;;;1.28;100.00;102650.81;5026166;28;19925;-66
2023/02/15 07:43:11;;;;;;;;;;;;;;;1.30;100.00;102655.06;5028736;28;20236;-66
2023/02/15 07:45:38;;;;;;;;;;;;;;;1.35;100.00;102647.16;5027597;28;19932;-66
2023/02/15 07:48:05;;;;;;;;;;;;;;;1.38;100.00;102650.50;5027097;28;20301;-65
2023/02/15 07:50:31;;;;;;;;;;;;;;;1.43;100.00;102647.81;5019654;28;19920;-67
2023/02/15 07:52:58;;;;;;;;;;;;;;;1.45;100.00;102646.03;5028470;28;19929;-65
2023/02/15 07:55:24;;;;;;;;;;;;;;;1.51;100.00;102647.59;5020755;28;19925;-64
2023/02/15 07:57:51;;;;;;;;;;;;;;;1.52;100.00;102639.78;5038647;28;20019;-65
2023/02/15 08:00:24;;;;;;;;;;;;;;;1.55;100.00;102634.53;5038506;28;19929;-67
2023/02/15 08:03:12;;;;;;;;;;;;;;;1.60;100.00;102631.81;5037404;28;19924;-66
2023/02/15 08:05:40;;;;;;;;;;;;;;;1.66;100.00;102639.41;5029839;28;20294;-66
2023/02/15 08:08:07;;;;;;;;;;;;;;;1.74;100.00;102634.00;5021890;28;19929;-65
2023/02/15 08:13:20;;;;;;;;;;;;;;;1.85;100.00;102628.53;5022703;28;20377;-65
2023/02/15 08:15:52;;;;;;;;;;;;;;;1.93;100.00;102629.13;5027558;28;19924;-67
2023/02/15 08:18:18;;;;;;;;;;;;;;;1.96;100.00;102624.72;5007521;28;19928;-66
2023/02/15 08:20:51;;;;;;;;;;;;;;;2.01;100.00;102621.16;5036644;28;19924;-67
2023/02/15 08:23:17;;;;;;;;;;;;;;;2.06;100.00;102622.69;5032078;28;19936;-67
2023/02/15 08:25:43;;;;;;;;;;;;;;;2.12;100.00;102614.75;5030669;28;20021;-67
2023/02/15 08:28:10;;;;;;;;;;;;;;;2.16;100.00;102608.56;5045821;28;19925;-67
2023/02/15 08:30:36;;;;;;;;;;;;;;;2.21;100.00;102604.97;5043593;28;20024;-67
2023/02/15 08:33:02;;;;;;;;;;;;;;;2.25;100.00;102610.00;5039307;28;19924;-66
2023/02/15 08:35:29;;;;;;;;;;;;;;;2.31;100.00;102606.38;5035994;28;20550;-67
2023/02/15 08:37:55;;;;;;;;;;;;;;;2.36;100.00;102597.56;5036809;28;19927;-66
2023/02/15 08:40:21;;;;;;;;;;;;;;;2.43;100.00;102608.59;5045780;28;19924;-67
2023/02/15 08:42:48;;;;;;;;;;;;;;;2.44;100.00;102604.25;5045936;28;20001;-65
2023/02/15 08:45:14;;;;;;;;;;;;;;;2.49;100.00;102600.63;5041628;28;19929;-64
2023/02/15 08:47:41;;;;;;;;;;;;;;;2.55;100.00;102594.41;5037055;28;19931;-66
2023/02/15 08:50:07;;;;;;;;;;;;;;;2.60;100.00;102607.19;5028469;28;19983;-67
2023/02/15 08:52:33;;;;;;;;;;;;;;;2.65;100.00;102595.78;5024278;28;19925;-66
2023/02/15 08:55:00;;;;;;;;;;;;;;;2.70;100.00;102600.78;5044474;28;19924;-67
2023/02/15 08:57:27;;;;;;;;;;;;;;;2.78;100.00;102598.78;5051296;28;19924;-67
2023/02/15 08:59:54;;;;;;;;;;;;;;;2.85;100.00;102595.09;5036615;28;19985;-66
2023/02/15 09:02:21;;;;;;;;;;;;;;;2.93;100.00;102597.41;5035078;28;19999;-64
2023/02/15 09:04:47;;;;;;;;;;;;;;;3.00;100.00;102598.03;5018443;28;19932;-67
2023/02/15 09:07:14;;;;;;;;;;;;;;;3.10;100.00;102599.44;5037666;28;19924;-66
2023/02/15 09:09:40;;;;;;;;;;;;;;;3.20;100.00;102598.19;5036425;28;20444;-67
2023/02/15 09:12:07;;;;;;;;;;;;;;;3.30;100.00;102590.94;5035478;28;20197;-67
2023/02/15 09:14:33;;;;;;;;;;;;;;;3.45;100.00;102589.50;5029571;28;20015;-67
2023/02/15 09:17:00;;;;;;;;;;;;;;;3.55;100.00;102594.31;5032702;28;19928;-68
2023/02/15 09:19:27;;;;;;;;;;;;;;;3.69;100.00;102590.34;5034962;28;19928;-66
2023/02/15 09:21:53;;;;;;;;;;;;;;;3.79;100.00;102586.50;5002678;28;19964;-66
2023/02/15 09:24:19;;;;;;;;;;;;;;;3.90;100.00;102581.75;5035570;28;19924;-65
2023/02/15 09:26:47;;;;;;;;;;;;;;;3.94;100.00;102585.06;5035710;28;19928;-65
2023/02/15 09:29:14;;;;;;;;;;;;;;;4.08;100.00;102581.94;5038547;28;19943;-66
2023/02/15 09:31:43;;;;;;;;;;;;;;;4.15;100.00;102581.59;5035886;28;19975;-65
2023/02/15 09:34:11;;;;;;;;;;;;;;;4.27;100.00;102582.00;5026315;28;19925;-64
2023/02/15 09:36:39;;;;;;;;;;;;;;;4.39;100.00;102586.72;5035113;28;19928;-65
2023/02/15 09:39:10;;;;;;;;;;;;;;;4.48;100.00;102588.94;5029487;28;19940;-66
2023/02/15 09:41:55;;;;;;;;;;;;;;;4.53;100.00;102591.34;5038226;28;19928;-64
2023/02/15 09:44:27;;;;;;;;;;;;;;;4.61;100.00;102583.25;5020756;28;20048;-66
2023/02/15 09:47:12;;;;;;;;;;;;;;;4.65;100.00;102577.00;5024544;28;19925;-65
2023/02/15 09:49:38;;;;;;;;;;;;;;;4.74;100.00;102574.00;5022927;28;19924;-66
2023/02/15 09:52:28;;;;;;;;;;;;;;;4.82;100.00;102577.13;5033160;28;19925;-67
2023/02/15 09:54:54;;;;;;;;;;;;;;;4.93;100.00;102574.88;5026939;28;19925;-68
2023/02/15 09:57:33;;;;;;;;;;;;;;;5.02;100.00;102581.47;5036894;28;19921;-68
2023/02/15 10:00:06;;;;;;;;;;;;;;;5.11;100.00;102568.03;5045614;28;19935;-67
2023/02/15 10:02:35;;;;;;;;;;;;;;;5.21;100.00;102565.03;5030824;28;20448;-66
2023/02/15 10:05:11;;;;;;;;;;;;;;;5.30;100.00;102575.03;5038815;28;19921;-67
2023/02/15 10:07:48;;;;;;;;;;;;;;;5.35;100.00;102566.09;5035054;28;19929;-66
2023/02/15 10:10:17;;;;;;;;;;;;;;;5.51;100.00;102570.63;5033363;28;19921;-66
2023/02/15 10:12:49;;;;;;;;;;;;;;;5.56;100.00;102566.03;5034533;28;19925;-66
2023/02/15 10:15:34;;;;;;;;;;;;;;;5.62;100.00;102565.72;5037818;28;19921;-66
2023/02/15 10:18:09;;;;;;;;;;;;;;;5.78;100.00;102565.03;5029642;28;20337;-66
2023/02/15 10:20:39;;;;;;;;;;;;;;;5.89;100.00;102566.19;5032094;28;19924;-66
2023/02/15 10:23:18;;;;;;;;;;;;;;;5.98;100.00;102570.16;5031055;28;19932;-66
2023/02/15 10:25:56;;;;;;;;;;;;;;;6.10;100.00;102571.34;5047710;28;19987;-67
2023/02/15 10:28:26;;;;;;;;;;;;;;;6.24;100.00;102568.91;5027946;28;19925;-66
2023/02/15 10:31:03;;;;;;;;;;;;;;;6.29;100.00;102572.13;5021084;28;19982;-67
2023/02/15 10:33:30;;;;;;;;;;;;;;;6.44;100.00;102570.50;5046773;28;19925;-67
2023/02/15 10:35:59;;;;;;;;;;;;;;;6.50;100.00;102572.81;5037283;28;19928;-66
2023/02/15 10:38:38;;;;;;;;;;;;;;;6.65;100.00;102567.75;5046724;28;19924;-66
2023/02/15 10:41:29;;;;;;;;;;;;;;;6.78;100.00;102576.63;5038186;28;19931;-67
2023/02/15 10:44:04;;;;;;;;;;;;;;;6.90;100.00;102568.19;5029890;28;19929;-67
2023/02/15 10:46:44;;;;;;;;;;;;;;;7.05;100.00;102569.13;5031701;28;19921;-68
2023/02/15 10:49:25;;;;;;;;;;;;;;;7.18;100.00;102564.13;5040042;28;19979;-66
2023/02/15 10:52:10;;;;;;;;;;;;;;;7.33;100.00;102563.31;5031805;28;19960;-70
2023/02/15 10:54:43;;;;;;;;;;;;;;;7.46;100.00;102552.19;5034486;28;19920;-66
2023/02/15 10:57:19;;;;;;;;;;;;;;;7.61;100.00;102551.34;5041651;28;19920;-68
2023/02/15 10:59:59;;;;;;;;;;;;;;;7.79;100.00;102557.31;5030378;28;20011;-67
2023/02/15 11:02:28;;;;;;;;;;;;;;;7.90;100.00;102557.56;5055300;28;20318;-67
2023/02/15 11:05:17;;;;;;;;;;;;;;;8.05;100.00;102557.63;5037814;28;19928;-67
2023/02/15 11:07:47;;;;;;;;;;;;;;;8.18;100.00;102557.78;5041739;28;20362;-66
2023/02/15 11:10:13;;;;;;;;;;;;;;;8.30;100.00;102557.06;5019434;28;20501;-66
2023/02/15 11:12:44;;;;;;;;;;;;;;;8.39;98.97;102551.31;5030905;28;19928;-66
2023/02/15 11:15:10;;;;;;;;;;;;;;;8.51;94.25;102552.38;5029067;28;19944;-68
2023/02/15 11:17:40;;;;;;;;;;;;;;;8.69;94.50;102551.28;5036150;28;19975;-66
2023/02/15 11:20:15;;;;;;;;;;;;;;;8.77;90.38;102542.97;5027169;28;19932;-66
2023/02/15 11:22:41;;;;;;;;;;;;;;;8.93;93.07;102547.28;5020177;28;20082;-67
2023/02/15 11:25:25;;;;;;;;;;;;;;;9.05;92.22;102539.50;5025029;28;19940;-67
2023/02/15 11:27:53;;;;;;;;;;;;;;;9.20;91.67;102537.72;5040302;28;19921;-68
2023/02/15 11:30:21;;;;;;;;;;;;;;;9.33;87.42;102536.97;5043246;28;20010;-66
2023/02/15 11:32:51;;;;;;;;;;;;;;;9.45;88.29;102537.03;5034859;28;20392;-66
2023/02/15 11:35:25;;;;;;;;;;;;;;;9.57;78.37;102532.81;5038853;28;19967;-67
2023/02/15 11:37:54;;;;;;;;;;;;;;;9.68;76.26;102525.09;5022911;28;19924;-68
2023/02/15 11:40:25;;;;;;;;;;;;;;;9.78;76.97;102521.88;5039546;28;19929;-68
2023/02/15 11:42:55;;;;;;;;;;;;;;;9.87;73.42;102518.66;5036818;28;20019;-67
2023/02/15 11:45:34;;;;;;;;;;;;;;;10.05;74.92;102524.47;5034506;28;20576;-68
2023/02/15 11:48:04;;;;;;;;;;;;;;;10.08;73.54;102519.03;5046739;28;19991;-68
2023/02/15 11:50:32;;;;;;;;;;;;;;;10.24;72.59;102521.47;5024074;28;20671;-68
2023/02/15 11:53:03;;;;;;;;;;;;;;;10.33;73.49;102507.78;5034282;28;20305;-67
2023/02/15 11:55:30;;;;;;;;;;;;;;;10.43;73.79;102508.00;5024715;28;19927;-67
2023/02/15 11:58:14;;;;;;;;;;;;;;;10.44;71.19;102507.03;5031605;28;19925;-67
2023/02/15 12:00:43;;;;;;;;;;;;;;;10.51;73.61;102494.34;5033311;28;20412;-67
2023/02/15 12:03:29;;;;;;;;;;;;;;;10.53;72.07;102488.06;5049144;28;20373;-68
2023/02/15 12:06:01;;;;;;;;;;;;;;;10.46;72.12;102489.41;5026336;28;20357;-68
2023/02/15 12:08:36;;;;;;;;;;;;;;;10.61;74.25;102484.91;5034523;28;20435;-67
2023/02/15 12:11:07;;;;;;;;;;;;;;;10.66;72.83;102483.66;5043294;28;19929;-67
2023/02/15 12:13:33;;;;;;;;;;;;;;;10.84;76.24;102470.19;5042594;28;19967;-66
2023/02/15 12:16:06;;;;;;;;;;;;;;;10.95;70.03;102466.78;5041377;28;20369;-67
2023/02/15 12:18:33;;;;;;;;;;;;;;;10.99;68.59;102461.19;5032781;28;20007;-67
2023/02/15 12:21:03;;;;;;;;;;;;;;;11.13;70.97;102448.88;5043671;28;19924;-69
2023/02/15 12:23:31;;;;;;;;;;;;;;;11.23;70.26;102453.38;5020773;28;20040;-70
2023/02/15 12:25:57;;;;;;;;;;;;;;;11.27;69.58;102446.09;5055679;28;19978;-69
2023/02/15 12:28:35;;;;;;;;;;;;;;;11.41;70.99;102451.19;5044186;28;20266;-69
2023/02/15 12:31:21;;;;;;;;;;;;;;;11.48;67.87;102448.94;5039855;28;19963;-69
2023/02/15 12:33:50;;;;;;;;;;;;;;;11.54;68.19;102445.03;5039769;28;19925;-70
2023/02/15 12:36:21;;;;;;;;;;;;;;;11.68;69.82;102440.44;5034753;28;19980;-69
2023/02/15 12:39:02;;;;;;;;;;;;;;;11.60;66.13;102441.94;5039114;28;19932;-71
2023/02/15 12:41:29;;;;;;;;;;;;;;;11.79;70.28;102441.44;5028065;28;20015;-69
2023/02/15 12:44:14;;;;;;;;;;;;;;;11.87;67.89;102439.88;5041274;28;19924;-69
2023/02/15 12:46:41;;;;;;;;;;;;;;;11.96;69.98;102440.22;5029186;28;19924;-67
2023/02/15 12:49:10;;;;;;;;;;;;;;;12.08;66.76;102441.91;5038743;28;19931;-70
2023/02/15 12:51:50;;;;;;;;;;;;;;;12.02;65.06;102431.84;5046800;28;20452;-70
2023/02/15 12:54:34;;;;;;;;;;;;;;;12.01;64.88;102431.00;5044360;28;20247;-68
2023/02/15 12:57:12;;;;;;;;;;;;;;;12.31;70.10;102432.25;5042550;28;20277;-69
2023/02/15 12:59:49;;;;;;;;;;;;;;;12.33;66.64;102432.09;5022587;28;19925;-69
2023/02/15 13:02:24;;;;;;;;;;;;;;;12.51;67.33;102425.44;5027434;28;20412;-69
2023/02/15 13:04:51;;;;;;;;;;;;;;;12.61;66.77;102423.75;5028925;28;20024;-69
2023/02/15 13:07:17;;;;;;;;;;;;;;;12.80;69.16;102412.59;5040121;28;19924;-68
2023/02/15 13:09:44;;;;;;;;;;;;;;;12.74;64.60;102414.88;5038470;28;20381;-70
2023/02/15 13:12:18;;;;;;;;;;;;;;;12.68;65.65;102402.19;5024648;28;19924;-68
2023/02/15 13:14:45;;;;;;;;;;;;;;;12.67;62.99;102404.00;5041816;28;19925;-68
2023/02/15 13:17:15;;;;;;;;;;;;;;;12.66;64.99;102404.94;5034533;28;19955;-68